Bochem Mumbai — VRHJ8 — position and weather

sailwx.info

Track history (hours):
 
Tides and Currents Weather Stations Pressure Air Temp Water Temp Dewpoint Dewpoint Depression Visibility Wind Speed Wind Dir Waves Ship Positions

Bochem Mumbai

Last reported at 2014-Dec-16 06:33 UTC. Time now 2014-Dec-17 21:40 UTC.
Position N 38°18' W 010°06'.

Length 171 m; draft 6.5 m.

Type: Tanker. MMSI: 477932400.

Date/timePositionNaut miles runAvg speedWind from/ knotsBaromVisibWave heightAir tempDewpointWater temp
2014-Dec-16 06:33N 38°18' W 010°06'1413.9
2014-Dec-16 05:33N 38°31' W 010°10'1413.9
2014-Dec-16 04:33N 38°45' W 010°12'  
2014-Dec-13 05:32N 50°34' E 000°20'1414.1
2014-Dec-13 04:33N 50°40' E 000°39'1313.5
2014-Dec-13 03:33N 50°48' E 000°57'1312.9
2014-Dec-13 02:33N 50°56' E 001°13'1313.4
2014-Dec-13 01:34N 51°05' E 001°28'1514.6
2014-Dec-13 00:34N 51°14' E 001°46'1515.4
2014-Dec-12 23:34N 51°28' E 001°57'1514.6
2014-Dec-12 22:34N 51°39' E 002°13'5511.0
2014-Dec-12 17:33N 52°04' E 003°32'1110.8
2014-Dec-12 16:33N 52°03' E 003°50'4 3.8
2014-Dec-12 15:33N 52°02' E 003°55'10 9.7
2014-Dec-12 14:33N 51°57' E 004°09'3 2.5
2014-Dec-12 13:33N 51°56' E 004°12'0 0.0
2014-Dec-12 12:33N 51°55' E 004°12'0 0.0
2014-Dec-12 11:30N 51°55' E 004°12'0 0.0
2014-Dec-12 10:33N 51°55' E 004°12'0 0.0
2014-Dec-12 09:33N 51°56' E 004°12'0 0.0
2014-Dec-12 08:18N 51°55' E 004°12'0 0.0
2014-Dec-12 07:27N 51°56' E 004°12'0 0.0
2014-Dec-12 06:27N 51°56' E 004°12'0 0.0
2014-Dec-12 05:33N 51°55' E 004°12'0 0.0
2014-Dec-12 04:30N 51°55' E 004°12'0 0.0
2014-Dec-12 03:33N 51°55' E 004°12'0 0.0
2014-Dec-12 02:30N 51°56' E 004°12'0 0.0
2014-Dec-12 01:33N 51°56' E 004°12'0 0.0
2014-Dec-12 00:33N 51°56' E 004°12'0 0.0
2014-Dec-11 23:33N 51°55' E 004°12'0 0.0
2014-Dec-11 22:27N 51°56' E 004°12'0 0.0
2014-Dec-11 21:24N 51°56' E 004°12'0 0.0
2014-Dec-11 20:30N 51°56' E 004°12'0 0.0
2014-Dec-11 19:30N 51°55' E 004°12'0 0.0
2014-Dec-11 18:33N 51°55' E 004°12'0 0.0
2014-Dec-11 17:21N 51°56' E 004°12'0 0.0
2014-Dec-11 16:33N 51°55' E 004°12'0 0.0
2014-Dec-11 15:30N 51°56' E 004°12'0 0.0
2014-Dec-11 14:33N 51°55' E 004°12'0 0.0
2014-Dec-11 13:33N 51°56' E 004°12'0 0.0
2014-Dec-11 12:33N 51°56' E 004°12'0 0.0
2014-Dec-11 11:33N 51°56' E 004°12'0 0.0
2014-Dec-11 10:33N 51°56' E 004°12'0 0.0
2014-Dec-11 09:33N 51°55' E 004°12'0 0.0
2014-Dec-11 08:30N 51°55' E 004°12'0 0.0
2014-Dec-11 07:33N 51°56' E 004°12'0 0.0
2014-Dec-11 06:33N 51°55' E 004°12'0 0.0
2014-Dec-11 05:33N 51°56' E 004°12'0 0.0
2014-Dec-11 04:33N 51°55' E 004°12'0 0.0
2014-Dec-11 03:33N 51°56' E 004°12'0 0.0
2014-Dec-11 02:33N 51°55' E 004°12'0 0.0
2014-Dec-11 01:30N 51°55' E 004°12'0 0.0
2014-Dec-11 00:33N 51°56' E 004°12'0 0.0
2014-Dec-10 23:33N 51°56' E 004°12'0 0.0
2014-Dec-10 22:30N 51°56' E 004°12'0 0.0
2014-Dec-10 21:30N 51°55' E 004°12'0 0.0
2014-Dec-10 20:33N 51°56' E 004°12'0 0.0
2014-Dec-10 19:33N 51°56' E 004°12'0 0.3
2014-Dec-10 18:33N 51°56' E 004°12'8 7.6
2014-Dec-10 17:33N 51°60' E 004°01'5 4.7
2014-Dec-10 16:33N 51°60' E 003°54'2 2.5
2014-Dec-10 15:33N 52°01' E 003°51'5 4.5
2014-Dec-10 14:33N 52°05' E 003°48'3 3.3
2014-Dec-10 13:33N 52°08' E 003°47'6 6.5
2014-Dec-10 12:33N 52°15' E 003°47'7 6.9
2014-Dec-10 11:32N 52°22' E 003°47'16 2.3
2014-Dec-10 04:31N 52°09' E 003°31'8 7.9
2014-Dec-10 03:33N 52°06' E 003°42'5 5.4
2014-Dec-10 02:33N 52°11' E 003°47'8 7.7
2014-Dec-10 01:33N 52°19' E 003°48'8 8.2
2014-Dec-10 00:33N 52°27' E 003°50'7 7.4
2014-Dec-09 23:33N 52°31' E 004°00'9 9.4
2014-Dec-09 22:33N 52°31' E 004°15'10 9.7
2014-Dec-09 21:34N 52°28' E 004°31'4 3.9
2014-Dec-09 20:34N 52°28' E 004°37'5 4.8
2014-Dec-09 19:34N 52°26' E 004°44'4 4.2
2014-Dec-09 18:33N 52°25' E 004°51'0 0.0
2014-Dec-09 17:33N 52°25' E 004°51'0 0.0
2014-Dec-09 16:33N 52°25' E 004°51'0 0.0
2014-Dec-09 15:33N 52°25' E 004°51'0 0.0
2014-Dec-09 14:33N 52°25' E 004°51'0 0.0
2014-Dec-09 13:33N 52°25' E 004°51'0 0.0
2014-Dec-09 12:33N 52°25' E 004°51'0 0.0
2014-Dec-09 11:33N 52°25' E 004°51'0 0.0
2014-Dec-09 10:33N 52°25' E 004°51'0 0.0
2014-Dec-09 09:33N 52°25' E 004°51'0 0.0
2014-Dec-09 08:33N 52°25' E 004°51'0 0.0
2014-Dec-09 07:33N 52°25' E 004°51'0 0.0
2014-Dec-09 06:33N 52°25' E 004°51'0 0.0
2014-Dec-09 05:33N 52°25' E 004°51'0 0.0
2014-Dec-09 04:33N 52°25' E 004°51'0 0.0
2014-Dec-09 03:33N 52°25' E 004°51'0 0.0
2014-Dec-09 02:33N 52°25' E 004°51'0 0.0
2014-Dec-09 01:33N 52°25' E 004°51'0 0.0
2014-Dec-09 00:33N 52°25' E 004°51'0 0.0
2014-Dec-08 23:33N 52°25' E 004°51'0 0.0
2014-Dec-08 22:33N 52°25' E 004°51'0 0.0
2014-Dec-08 21:33N 52°25' E 004°51'0 0.0
2014-Dec-08 20:33N 52°25' E 004°51'0 0.0
2014-Dec-08 19:33N 52°25' E 004°51'0 0.0
2014-Dec-08 18:33N 52°25' E 004°51'0 0.0
2014-Dec-08 17:33N 52°25' E 004°51'0 0.0
2014-Dec-08 16:33N 52°25' E 004°51'0 0.0
2014-Dec-08 15:33N 52°25' E 004°51'0 0.0
2014-Dec-08 14:33N 52°25' E 004°51'0 0.0
2014-Dec-08 13:33N 52°25' E 004°51'0 0.0
2014-Dec-08 12:33N 52°25' E 004°51'0 0.0
2014-Dec-08 11:33N 52°25' E 004°51'0 0.0
2014-Dec-08 10:33N 52°25' E 004°51'0 0.0
2014-Dec-08 09:33N 52°25' E 004°51'0 0.0
2014-Dec-08 08:33N 52°25' E 004°51'0 0.0
2014-Dec-08 07:33N 52°25' E 004°51'0 0.0
2014-Dec-08 06:33N 52°25' E 004°51'0 0.0
2014-Dec-08 05:33N 52°25' E 004°51'0 0.0
2014-Dec-08 04:33N 52°25' E 004°51'0 0.0
2014-Dec-08 03:33N 52°25' E 004°51'0 0.0
2014-Dec-08 02:33N 52°25' E 004°51'0 0.0
2014-Dec-08 01:33N 52°25' E 004°51'0 0.0
2014-Dec-08 00:33N 52°25' E 004°51'0 0.0
2014-Dec-07 23:34N 52°25' E 004°51'0 0.0
2014-Dec-07 22:33N 52°25' E 004°51'0 0.0
2014-Dec-07 21:33N 52°25' E 004°51'0 0.0
2014-Dec-07 20:33N 52°25' E 004°51'0 0.0
2014-Dec-07 19:33N 52°25' E 004°51'0 0.0
2014-Dec-07 18:33N 52°25' E 004°51'0 0.0
2014-Dec-07 17:33N 52°25' E 004°51'0 0.0
2014-Dec-07 16:33N 52°25' E 004°51'0 0.0
2014-Dec-07 15:33N 52°25' E 004°51'0 0.0
2014-Dec-07 14:33N 52°25' E 004°51'0 0.0
2014-Dec-07 13:33N 52°25' E 004°51'0 0.0
2014-Dec-07 12:33N 52°25' E 004°51'0 0.0
2014-Dec-07 11:33N 52°25' E 004°51'0 0.0
2014-Dec-07 10:33N 52°25' E 004°51'0 0.0
2014-Dec-07 09:33N 52°25' E 004°51'1 1.3
2014-Dec-07 08:33N 52°25' E 004°49'7 7.0
2014-Dec-07 07:33N 52°28' E 004°38'1 1.4
2014-Dec-07 06:34N 52°28' E 004°36'7 7.0
2014-Dec-07 05:33N 52°29' E 004°24'7 6.5
2014-Dec-07 04:33N 52°29' E 004°14'9 8.7
2014-Dec-07 03:33N 52°28' E 003°60'1010.1
2014-Dec-07 02:33N 52°26' E 003°44'5210.3
2014-Dec-06 21:31N 51°49' E 002°43'1110.4
2014-Dec-06 20:30N 51°41' E 002°32'1010.2
2014-Dec-06 19:33N 51°34' E 002°21'1010.1
2014-Dec-06 18:34N 51°26' E 002°10'10 9.8
2014-Dec-06 17:33N 51°17' E 002°07'1010.2
2014-Dec-06 16:33N 51°10' E 001°54'1110.6
2014-Dec-06 15:33N 51°03' E 001°41'1211.4
2014-Dec-06 14:32N 50°55' E 001°28'1411.9
2014-Dec-06 13:25N 50°42' E 001°21'2511.6
2014-Dec-06 11:13N 50°28' E 000°48'1112.0
2014-Dec-06 10:17N 50°24' E 000°32'  
Track history (hours):
 
Tides and Currents Weather Stations Pressure Air Temp Water Temp Dewpoint Dewpoint Depression Visibility Wind Speed Wind Dir Waves Ship Positions

Bochem Mumbai

Last reported at 2014-Dec-16 06:33 UTC. Time now 2014-Dec-17 21:40 UTC.
Position N 38°18' W 010°06'.

Length 171 m; draft 6.5 m.

Type: Tanker. MMSI: 477932400.

Date/timePositionNaut miles runAvg speedWind from/ knotsBaromVisibWave heightAir tempDewpointWater temp
2014-Dec-16 06:33N 38°18' W 010°06'1413.9
2014-Dec-16 05:33N 38°31' W 010°10'1413.9
2014-Dec-16 04:33N 38°45' W 010°12'  
2014-Dec-13 05:32N 50°34' E 000°20'1414.1
2014-Dec-13 04:33N 50°40' E 000°39'1313.5
2014-Dec-13 03:33N 50°48' E 000°57'1312.9
2014-Dec-13 02:33N 50°56' E 001°13'1313.4
2014-Dec-13 01:34N 51°05' E 001°28'1514.6
2014-Dec-13 00:34N 51°14' E 001°46'1515.4
2014-Dec-12 23:34N 51°28' E 001°57'1514.6
2014-Dec-12 22:34N 51°39' E 002°13'5511.0
2014-Dec-12 17:33N 52°04' E 003°32'1110.8
2014-Dec-12 16:33N 52°03' E 003°50'4 3.8
2014-Dec-12 15:33N 52°02' E 003°55'10 9.7
2014-Dec-12 14:33N 51°57' E 004°09'3 2.5
2014-Dec-12 13:33N 51°56' E 004°12'0 0.0
2014-Dec-12 12:33N 51°55' E 004°12'0 0.0
2014-Dec-12 11:30N 51°55' E 004°12'0 0.0
2014-Dec-12 10:33N 51°55' E 004°12'0 0.0
2014-Dec-12 09:33N 51°56' E 004°12'0 0.0
2014-Dec-12 08:18N 51°55' E 004°12'0 0.0
2014-Dec-12 07:27N 51°56' E 004°12'0 0.0
2014-Dec-12 06:27N 51°56' E 004°12'0 0.0
2014-Dec-12 05:33N 51°55' E 004°12'0 0.0
2014-Dec-12 04:30N 51°55' E 004°12'0 0.0
2014-Dec-12 03:33N 51°55' E 004°12'0 0.0
2014-Dec-12 02:30N 51°56' E 004°12'0 0.0
2014-Dec-12 01:33N 51°56' E 004°12'0 0.0
2014-Dec-12 00:33N 51°56' E 004°12'0 0.0
2014-Dec-11 23:33N 51°55' E 004°12'0 0.0
2014-Dec-11 22:27N 51°56' E 004°12'0 0.0
2014-Dec-11 21:24N 51°56' E 004°12'0 0.0
2014-Dec-11 20:30N 51°56' E 004°12'0 0.0
2014-Dec-11 19:30N 51°55' E 004°12'0 0.0
2014-Dec-11 18:33N 51°55' E 004°12'0 0.0
2014-Dec-11 17:21N 51°56' E 004°12'0 0.0
2014-Dec-11 16:33N 51°55' E 004°12'0 0.0
2014-Dec-11 15:30N 51°56' E 004°12'0 0.0
2014-Dec-11 14:33N 51°55' E 004°12'0 0.0
2014-Dec-11 13:33N 51°56' E 004°12'0 0.0
2014-Dec-11 12:33N 51°56' E 004°12'0 0.0
2014-Dec-11 11:33N 51°56' E 004°12'0 0.0
2014-Dec-11 10:33N 51°56' E 004°12'0 0.0
2014-Dec-11 09:33N 51°55' E 004°12'0 0.0
2014-Dec-11 08:30N 51°55' E 004°12'0 0.0
2014-Dec-11 07:33N 51°56' E 004°12'0 0.0
2014-Dec-11 06:33N 51°55' E 004°12'0 0.0
2014-Dec-11 05:33N 51°56' E 004°12'0 0.0
2014-Dec-11 04:33N 51°55' E 004°12'0 0.0
2014-Dec-11 03:33N 51°56' E 004°12'0 0.0
2014-Dec-11 02:33N 51°55' E 004°12'0 0.0
2014-Dec-11 01:30N 51°55' E 004°12'0 0.0
2014-Dec-11 00:33N 51°56' E 004°12'0 0.0
2014-Dec-10 23:33N 51°56' E 004°12'0 0.0
2014-Dec-10 22:30N 51°56' E 004°12'0 0.0
2014-Dec-10 21:30N 51°55' E 004°12'0 0.0
2014-Dec-10 20:33N 51°56' E 004°12'0 0.0
2014-Dec-10 19:33N 51°56' E 004°12'0 0.3
2014-Dec-10 18:33N 51°56' E 004°12'8 7.6
2014-Dec-10 17:33N 51°60' E 004°01'5 4.7
2014-Dec-10 16:33N 51°60' E 003°54'2 2.5
2014-Dec-10 15:33N 52°01' E 003°51'5 4.5
2014-Dec-10 14:33N 52°05' E 003°48'3 3.3
2014-Dec-10 13:33N 52°08' E 003°47'6 6.5
2014-Dec-10 12:33N 52°15' E 003°47'7 6.9
2014-Dec-10 11:32N 52°22' E 003°47'16 2.3
2014-Dec-10 04:31N 52°09' E 003°31'8 7.9
2014-Dec-10 03:33N 52°06' E 003°42'5 5.4
2014-Dec-10 02:33N 52°11' E 003°47'8 7.7
2014-Dec-10 01:33N 52°19' E 003°48'8 8.2
2014-Dec-10 00:33N 52°27' E 003°50'7 7.4
2014-Dec-09 23:33N 52°31' E 004°00'9 9.4
2014-Dec-09 22:33N 52°31' E 004°15'10 9.7
2014-Dec-09 21:34N 52°28' E 004°31'4 3.9
2014-Dec-09 20:34N 52°28' E 004°37'5 4.8
2014-Dec-09 19:34N 52°26' E 004°44'4 4.2
2014-Dec-09 18:33N 52°25' E 004°51'0 0.0
2014-Dec-09 17:33N 52°25' E 004°51'0 0.0
2014-Dec-09 16:33N 52°25' E 004°51'0 0.0
2014-Dec-09 15:33N 52°25' E 004°51'0 0.0
2014-Dec-09 14:33N 52°25' E 004°51'0 0.0
2014-Dec-09 13:33N 52°25' E 004°51'0 0.0
2014-Dec-09 12:33N 52°25' E 004°51'0 0.0
2014-Dec-09 11:33N 52°25' E 004°51'0 0.0
2014-Dec-09 10:33N 52°25' E 004°51'0 0.0
2014-Dec-09 09:33N 52°25' E 004°51'0 0.0
2014-Dec-09 08:33N 52°25' E 004°51'0 0.0
2014-Dec-09 07:33N 52°25' E 004°51'0 0.0
2014-Dec-09 06:33N 52°25' E 004°51'0 0.0
2014-Dec-09 05:33N 52°25' E 004°51'0 0.0
2014-Dec-09 04:33N 52°25' E 004°51'0 0.0
2014-Dec-09 03:33N 52°25' E 004°51'0 0.0
2014-Dec-09 02:33N 52°25' E 004°51'0 0.0
2014-Dec-09 01:33N 52°25' E 004°51'0 0.0
2014-Dec-09 00:33N 52°25' E 004°51'0 0.0
2014-Dec-08 23:33N 52°25' E 004°51'0 0.0
2014-Dec-08 22:33N 52°25' E 004°51'0 0.0
2014-Dec-08 21:33N 52°25' E 004°51'0 0.0
2014-Dec-08 20:33N 52°25' E 004°51'0 0.0
2014-Dec-08 19:33N 52°25' E 004°51'0 0.0
2014-Dec-08 18:33N 52°25' E 004°51'0 0.0
2014-Dec-08 17:33N 52°25' E 004°51'0 0.0
2014-Dec-08 16:33N 52°25' E 004°51'0 0.0
2014-Dec-08 15:33N 52°25' E 004°51'0 0.0
2014-Dec-08 14:33N 52°25' E 004°51'0 0.0
2014-Dec-08 13:33N 52°25' E 004°51'0 0.0
2014-Dec-08 12:33N 52°25' E 004°51'0 0.0
2014-Dec-08 11:33N 52°25' E 004°51'0 0.0
2014-Dec-08 10:33N 52°25' E 004°51'0 0.0
2014-Dec-08 09:33N 52°25' E 004°51'0 0.0
2014-Dec-08 08:33N 52°25' E 004°51'0 0.0
2014-Dec-08 07:33N 52°25' E 004°51'0 0.0
2014-Dec-08 06:33N 52°25' E 004°51'0 0.0
2014-Dec-08 05:33N 52°25' E 004°51'0 0.0
2014-Dec-08 04:33N 52°25' E 004°51'0 0.0
2014-Dec-08 03:33N 52°25' E 004°51'0 0.0
2014-Dec-08 02:33N 52°25' E 004°51'0 0.0
2014-Dec-08 01:33N 52°25' E 004°51'0 0.0
2014-Dec-08 00:33N 52°25' E 004°51'0 0.0
2014-Dec-07 23:34N 52°25' E 004°51'0 0.0
2014-Dec-07 22:33N 52°25' E 004°51'0 0.0
2014-Dec-07 21:33N 52°25' E 004°51'0 0.0
2014-Dec-07 20:33N 52°25' E 004°51'0 0.0
2014-Dec-07 19:33N 52°25' E 004°51'0 0.0
2014-Dec-07 18:33N 52°25' E 004°51'0 0.0
2014-Dec-07 17:33N 52°25' E 004°51'0 0.0
2014-Dec-07 16:33N 52°25' E 004°51'0 0.0
2014-Dec-07 15:33N 52°25' E 004°51'0 0.0
2014-Dec-07 14:33N 52°25' E 004°51'0 0.0
2014-Dec-07 13:33N 52°25' E 004°51'0 0.0
2014-Dec-07 12:33N 52°25' E 004°51'0 0.0
2014-Dec-07 11:33N 52°25' E 004°51'0 0.0
2014-Dec-07 10:33N 52°25' E 004°51'0 0.0
2014-Dec-07 09:33N 52°25' E 004°51'1 1.3
2014-Dec-07 08:33N 52°25' E 004°49'7 7.0
2014-Dec-07 07:33N 52°28' E 004°38'1 1.4
2014-Dec-07 06:34N 52°28' E 004°36'7 7.0
2014-Dec-07 05:33N 52°29' E 004°24'7 6.5
2014-Dec-07 04:33N 52°29' E 004°14'9 8.7
2014-Dec-07 03:33N 52°28' E 003°60'1010.1
2014-Dec-07 02:33N 52°26' E 003°44'5210.3
2014-Dec-06 21:31N 51°49' E 002°43'1110.4
2014-Dec-06 20:30N 51°41' E 002°32'1010.2
2014-Dec-06 19:33N 51°34' E 002°21'1010.1
2014-Dec-06 18:34N 51°26' E 002°10'10 9.8
2014-Dec-06 17:33N 51°17' E 002°07'1010.2
2014-Dec-06 16:33N 51°10' E 001°54'1110.6
2014-Dec-06 15:33N 51°03' E 001°41'1211.4
2014-Dec-06 14:32N 50°55' E 001°28'1411.9
2014-Dec-06 13:25N 50°42' E 001°21'2511.6
2014-Dec-06 11:13N 50°28' E 000°48'1112.0
2014-Dec-06 10:17N 50°24' E 000°32'  

Dump ship's entire track history